createdAt,value
2019-02-19T00:00:36.232Z,18.80
2019-02-19T00:03:12.313Z,18.80
2019-02-19T00:05:42.608Z,19.30
2019-02-19T00:08:25.124Z,17.10
2019-02-19T00:10:54.564Z,18.33
2019-02-19T00:13:25.502Z,19.27
2019-02-19T00:15:58.178Z,19.30
2019-02-19T00:18:30.056Z,19.63
2019-02-19T00:20:59.066Z,18.53
2019-02-19T00:23:27.852Z,20.23
2019-02-19T00:25:56.718Z,17.10
2019-02-19T00:28:25.822Z,17.60
2019-02-19T00:30:54.654Z,15.83
2019-02-19T00:33:23.440Z,14.10
2019-02-19T00:35:52.442Z,13.43
2019-02-19T00:38:21.505Z,14.60
2019-02-19T00:40:50.544Z,12.13
2019-02-19T00:43:29.582Z,13.97
2019-02-19T00:45:58.777Z,13.60
2019-02-19T00:48:28.008Z,13.13
2019-02-19T00:51:00.270Z,14.33
2019-02-19T00:53:29.678Z,12.90
2019-02-19T00:55:58.729Z,12.67
2019-02-19T00:58:34.020Z,14.00
2019-02-19T01:01:03.374Z,14.40
2019-02-19T01:03:34.971Z,14.53
2019-02-19T01:06:03.919Z,16.10
2019-02-19T01:08:40.610Z,19.10
2019-02-19T01:11:09.888Z,18.00
2019-02-19T01:13:38.910Z,16.20
2019-02-19T01:16:10.610Z,16.67
2019-02-19T01:18:40.101Z,15.87
2019-02-19T01:21:11.011Z,15.30
2019-02-19T01:23:39.818Z,13.33
2019-02-19T01:26:11.674Z,12.87
2019-02-19T01:28:40.483Z,13.57
2019-02-19T01:31:09.455Z,11.97
2019-02-19T01:33:38.272Z,13.20
2019-02-19T01:36:07.192Z,13.60
2019-02-19T01:38:35.963Z,13.63
2019-02-19T01:41:04.892Z,12.53
2019-02-19T01:43:33.704Z,13.13
2019-02-19T01:46:02.564Z,13.43
2019-02-19T01:48:31.430Z,13.37
2019-02-19T01:51:00.372Z,12.10
2019-02-19T01:53:29.314Z,13.17
2019-02-19T01:55:58.153Z,13.63
2019-02-19T01:58:26.918Z,13.83
2019-02-19T02:00:55.770Z,13.40
2019-02-19T02:03:24.576Z,12.77
2019-02-19T02:05:53.448Z,12.70
2019-02-19T02:08:22.435Z,12.10
2019-02-19T02:10:51.312Z,11.37
2019-02-19T02:13:22.240Z,10.03
2019-02-19T02:15:51.105Z,11.73
2019-02-19T02:18:19.996Z,10.50
2019-02-19T02:20:48.940Z,11.37
2019-02-19T02:23:17.913Z,10.53
2019-02-19T02:25:46.752Z,11.63
2019-02-19T02:28:15.986Z,12.00
2019-02-19T02:30:44.948Z,13.30
2019-02-19T02:33:13.864Z,10.90
2019-02-19T02:35:42.673Z,11.33
2019-02-19T02:38:11.548Z,10.23
2019-02-19T02:40:40.400Z,9.97
2019-02-19T02:43:09.256Z,10.27
2019-02-19T02:45:38.031Z,11.70
2019-02-19T02:48:06.930Z,10.97
2019-02-19T02:50:35.853Z,12.00
2019-02-19T02:53:04.803Z,12.30
2019-02-19T02:55:33.717Z,11.17
2019-02-19T02:58:02.944Z,10.20
2019-02-19T03:00:31.834Z,10.70
2019-02-19T03:03:00.621Z,11.07
2019-02-19T03:05:29.512Z,10.10
2019-02-19T03:08:01.797Z,10.87
2019-02-19T03:10:33.552Z,10.40
2019-02-19T03:13:02.394Z,9.90
2019-02-19T03:15:32.003Z,10.57
2019-02-19T03:18:00.977Z,11.83
2019-02-19T03:20:29.869Z,11.07
2019-02-19T03:22:58.649Z,11.07
2019-02-19T03:25:27.672Z,10.53
2019-02-19T03:27:56.503Z,9.47
2019-02-19T03:30:25.368Z,9.97
2019-02-19T03:32:54.287Z,10.37
2019-02-19T03:35:23.148Z,11.20
2019-02-19T03:37:52.014Z,10.80
2019-02-19T03:40:20.804Z,9.80
2019-02-19T03:42:49.678Z,9.83
2019-02-19T03:45:18.553Z,9.67
2019-02-19T03:47:47.395Z,10.23
2019-02-19T03:50:17.698Z,11.17
2019-02-19T03:52:47.325Z,10.60
2019-02-19T03:55:16.198Z,9.43
2019-02-19T03:57:45.178Z,11.13
2019-02-19T04:00:14.146Z,10.40
2019-02-19T04:02:43.238Z,10.07
2019-02-19T04:05:12.214Z,11.80
2019-02-19T04:07:41.804Z,10.80
2019-02-19T04:10:13.224Z,10.00
2019-02-19T04:12:45.288Z,10.90
2019-02-19T04:15:14.093Z,9.40
2019-02-19T04:17:43.312Z,9.93
2019-02-19T04:20:12.424Z,11.30
2019-02-19T04:22:41.361Z,10.00
2019-02-19T04:25:10.614Z,10.57
2019-02-19T04:27:39.979Z,9.90
2019-02-19T04:30:09.062Z,11.40
2019-02-19T04:32:38.486Z,10.27
2019-02-19T04:35:07.578Z,9.50
2019-02-19T04:37:36.707Z,10.40
2019-02-19T04:40:05.740Z,10.10
2019-02-19T04:42:34.529Z,10.33
2019-02-19T04:45:03.410Z,10.30
2019-02-19T04:47:32.218Z,10.10
2019-02-19T04:50:00.997Z,9.90
2019-02-19T04:52:29.804Z,10.27
2019-02-19T04:54:58.625Z,11.07
2019-02-19T04:57:27.586Z,10.80
2019-02-19T04:59:56.409Z,9.83
2019-02-19T05:02:25.220Z,11.10
2019-02-19T05:04:54.093Z,10.47
2019-02-19T05:07:22.888Z,9.10
2019-02-19T05:09:51.738Z,8.93
2019-02-19T05:12:20.613Z,9.77
2019-02-19T05:14:49.449Z,9.63
2019-02-19T05:17:18.233Z,9.73
2019-02-19T05:19:47.069Z,9.60
2019-02-19T05:22:15.840Z,9.97
2019-02-19T05:24:44.620Z,9.93
2019-02-19T05:27:13.441Z,8.67
2019-02-19T05:29:42.461Z,10.23
2019-02-19T05:32:11.287Z,9.63
2019-02-19T05:34:40.196Z,8.80
2019-02-19T05:37:08.997Z,10.00
2019-02-19T05:39:37.892Z,9.40
2019-02-19T05:42:06.725Z,10.70
2019-02-19T05:44:35.530Z,10.93
2019-02-19T05:47:04.507Z,10.93
2019-02-19T05:49:33.397Z,9.67
2019-02-19T05:52:02.183Z,10.03
2019-02-19T05:54:31.010Z,9.37
2019-02-19T05:56:59.867Z,10.43
2019-02-19T05:59:29.043Z,9.27
2019-02-19T06:01:57.923Z,9.87
2019-02-19T06:04:26.779Z,9.90
2019-02-19T06:06:55.814Z,9.20
2019-02-19T06:09:24.763Z,10.50
2019-02-19T06:11:53.896Z,9.93
2019-02-19T06:14:22.686Z,9.37
2019-02-19T06:16:58.279Z,10.10
2019-02-19T06:19:21.995Z,10.50
2019-02-19T06:21:50.769Z,10.00
2019-02-19T06:24:19.640Z,9.50
2019-02-19T06:26:48.519Z,10.50
2019-02-19T06:29:17.353Z,10.00
2019-02-19T06:31:46.113Z,9.50
2019-02-19T06:34:15.011Z,11.20
2019-02-19T06:36:43.798Z,10.57
2019-02-19T06:39:12.691Z,9.60
2019-02-19T06:41:43.330Z,11.30
2019-02-19T06:44:12.183Z,10.90
2019-02-19T06:46:40.949Z,11.03
2019-02-19T06:49:09.793Z,10.83
2019-02-19T06:51:38.681Z,11.30
2019-02-19T06:54:07.566Z,11.93
2019-02-19T06:56:36.393Z,10.27
2019-02-19T06:59:05.252Z,9.27
2019-02-19T07:01:53.520Z,10.90
2019-02-19T07:04:26.235Z,10.10
2019-02-19T07:06:55.941Z,10.53
2019-02-19T07:09:24.751Z,8.83
2019-02-19T07:11:53.507Z,9.13
2019-02-19T07:14:22.314Z,10.40
2019-02-19T07:16:51.123Z,10.50
2019-02-19T07:19:19.999Z,10.10
2019-02-19T07:21:48.875Z,9.90
2019-02-19T07:24:17.687Z,11.17
2019-02-19T07:26:46.477Z,10.43
2019-02-19T07:29:15.223Z,9.23
2019-02-19T07:31:44.017Z,10.20
2019-02-19T07:34:12.883Z,9.47
2019-02-19T07:36:41.700Z,9.03
2019-02-19T07:39:10.497Z,10.10
2019-02-19T07:41:43.137Z,10.20
2019-02-19T07:44:11.915Z,9.37
2019-02-19T07:46:40.901Z,9.40
2019-02-19T07:49:09.784Z,8.83
2019-02-19T07:51:42.689Z,10.03
2019-02-19T07:54:11.607Z,9.17
2019-02-19T07:56:40.469Z,9.83
2019-02-19T07:59:09.594Z,9.60
2019-02-19T08:01:38.435Z,8.90
2019-02-19T08:04:07.233Z,9.47
2019-02-19T08:06:36.529Z,10.43
2019-02-19T08:09:10.804Z,10.37
2019-02-19T08:11:39.927Z,10.20
2019-02-19T08:14:08.799Z,9.63
2019-02-19T08:16:37.719Z,8.90
2019-02-19T08:19:06.493Z,10.47
2019-02-19T08:21:35.340Z,10.10
2019-02-19T08:24:04.226Z,9.60
2019-02-19T08:26:33.109Z,10.20
2019-02-19T08:29:13.041Z,9.73
2019-02-19T08:31:32.625Z,9.10
2019-02-19T08:34:01.395Z,8.50
2019-02-19T08:36:30.239Z,9.30
2019-02-19T08:38:59.006Z,9.57
2019-02-19T08:41:27.831Z,8.77
2019-02-19T08:43:56.707Z,10.00
2019-02-19T08:46:25.563Z,10.40
2019-02-19T08:48:54.429Z,10.43
2019-02-19T08:51:23.209Z,9.47
2019-02-19T08:53:52.611Z,8.93
2019-02-19T08:56:21.529Z,9.07
2019-02-19T08:58:50.337Z,9.30
2019-02-19T09:01:19.185Z,9.20
2019-02-19T09:03:48.093Z,10.20
2019-02-19T09:06:16.892Z,10.67
2019-02-19T09:08:45.792Z,11.47
2019-02-19T09:11:17.163Z,10.77
2019-02-19T09:13:46.043Z,10.50
2019-02-19T09:16:14.896Z,10.07
2019-02-19T09:18:43.699Z,9.33
2019-02-19T09:21:12.531Z,9.70
2019-02-19T09:23:42.391Z,11.60
2019-02-19T09:26:11.259Z,11.10
2019-02-19T09:28:40.003Z,11.57
2019-02-19T09:31:08.790Z,13.20
2019-02-19T09:33:37.667Z,13.57
2019-02-19T09:36:06.479Z,12.13
2019-02-19T09:38:35.231Z,11.97
2019-02-19T09:41:04.053Z,12.90
2019-02-19T09:43:35.497Z,12.30
2019-02-19T09:46:03.571Z,11.70
2019-02-19T09:48:32.368Z,13.63
2019-02-19T09:51:01.217Z,12.67
2019-02-19T09:53:30.014Z,12.53
2019-02-19T09:55:58.792Z,14.00
2019-02-19T09:58:27.590Z,13.40
2019-02-19T10:00:56.458Z,13.33
2019-02-19T10:03:25.362Z,13.10
2019-02-19T10:05:54.175Z,15.03
2019-02-19T10:08:23.041Z,13.20
2019-02-19T10:10:51.872Z,13.17
2019-02-19T10:13:20.673Z,13.57
2019-02-19T10:15:49.537Z,12.73
2019-02-19T10:18:18.451Z,11.90
2019-02-19T10:20:47.271Z,12.63
2019-02-19T10:23:16.254Z,13.50
2019-02-19T10:25:45.190Z,12.30
2019-02-19T10:28:14.047Z,13.90
2019-02-19T10:30:42.915Z,12.87
2019-02-19T10:33:11.794Z,14.27
2019-02-19T10:35:40.595Z,13.40
2019-02-19T10:38:09.523Z,13.03
2019-02-19T10:40:44.165Z,13.40
2019-02-19T10:43:13.193Z,14.57
2019-02-19T10:45:42.144Z,14.00
2019-02-19T10:48:18.819Z,14.40
2019-02-19T10:50:41.523Z,13.60
2019-02-19T10:53:10.337Z,13.53
2019-02-19T10:55:39.294Z,13.30
2019-02-19T10:58:08.083Z,14.13
2019-02-19T11:00:37.003Z,12.07
2019-02-19T11:03:05.861Z,12.40
2019-02-19T11:05:34.761Z,14.60
2019-02-19T11:08:03.669Z,14.10
2019-02-19T11:10:32.547Z,15.20
2019-02-19T11:13:01.412Z,14.47
2019-02-19T11:15:30.238Z,14.57
2019-02-19T11:17:59.168Z,13.07
2019-02-19T11:20:28.936Z,12.93
2019-02-19T11:22:57.900Z,14.97
2019-02-19T11:25:26.682Z,13.70
2019-02-19T11:27:55.540Z,11.47
2019-02-19T11:30:24.409Z,12.90
2019-02-19T11:32:53.292Z,11.83
2019-02-19T11:35:22.113Z,11.90
2019-02-19T11:37:51.008Z,11.50
2019-02-19T11:40:20.170Z,11.83
2019-02-19T11:42:49.476Z,12.03
2019-02-19T11:45:18.629Z,12.07
2019-02-19T11:47:50.016Z,11.47
2019-02-19T11:50:20.714Z,12.30
2019-02-19T11:52:51.281Z,11.67
2019-02-19T11:55:20.165Z,11.43
2019-02-19T11:57:48.930Z,11.70
2019-02-19T12:00:21.373Z,11.67
2019-02-19T12:02:50.444Z,11.50
2019-02-19T12:05:19.548Z,11.97
2019-02-19T12:07:48.526Z,11.20
2019-02-19T12:10:19.750Z,10.83
2019-02-19T12:12:52.324Z,12.10
2019-02-19T12:15:21.324Z,9.97
2019-02-19T12:17:50.350Z,10.37
2019-02-19T12:20:19.241Z,11.20
2019-02-19T12:22:48.178Z,11.00
2019-02-19T12:25:17.230Z,10.90
2019-02-19T12:27:46.266Z,9.83
2019-02-19T12:30:15.276Z,10.50
2019-02-19T12:32:44.203Z,10.30
2019-02-19T12:35:13.167Z,10.47
2019-02-19T12:37:41.968Z,11.50
2019-02-19T12:40:13.470Z,12.30
2019-02-19T12:42:42.366Z,11.00
2019-02-19T12:45:12.538Z,11.70
2019-02-19T12:47:43.289Z,11.50
2019-02-19T12:50:13.064Z,11.30
2019-02-19T12:52:42.067Z,10.70
2019-02-19T12:55:11.342Z,11.33
2019-02-19T12:57:40.377Z,11.43
2019-02-19T13:00:12.140Z,11.60
2019-02-19T13:02:41.255Z,10.97
2019-02-19T13:05:11.351Z,11.90
2019-02-19T13:07:40.438Z,11.30
2019-02-19T13:10:09.699Z,11.83
2019-02-19T13:12:38.845Z,10.87
2019-02-19T13:15:09.674Z,11.20
2019-02-19T13:17:38.856Z,11.93
2019-02-19T13:20:09.420Z,12.20
2019-02-19T13:22:38.233Z,11.53
2019-02-19T13:25:07.770Z,10.90
2019-02-19T13:27:40.138Z,11.57
2019-02-19T13:30:15.810Z,11.20
2019-02-19T13:32:45.073Z,11.83
2019-02-19T13:35:16.036Z,12.63
2019-02-19T13:37:44.821Z,11.20
2019-02-19T13:40:14.136Z,10.47
2019-02-19T13:42:42.972Z,11.17
2019-02-19T13:45:13.769Z,10.20
2019-02-19T13:47:42.644Z,9.63
2019-02-19T13:50:14.174Z,8.80
2019-02-19T13:52:47.924Z,7.80
2019-02-19T13:55:22.960Z,7.70
2019-02-19T13:57:51.692Z,9.40
2019-02-19T14:00:22.430Z,8.43
2019-02-19T14:02:51.500Z,8.40
2019-02-19T14:05:22.198Z,7.27
2019-02-19T14:07:51.111Z,8.00
2019-02-19T14:10:19.934Z,8.93
2019-02-19T14:12:48.861Z,7.50
2019-02-19T14:15:28.804Z,8.80
2019-02-19T14:17:57.858Z,7.70
2019-02-19T14:20:45.810Z,6.00
2019-02-19T14:23:32.396Z,6.40
2019-02-19T14:26:13.854Z,7.03
2019-02-19T14:29:00.240Z,6.40
2019-02-19T14:31:46.838Z,6.73
2019-02-19T14:34:33.540Z,6.67
2019-02-19T14:37:20.220Z,7.80
2019-02-19T14:40:10.234Z,5.87
2019-02-19T14:42:58.248Z,6.30
2019-02-19T14:45:39.162Z,6.73
2019-02-19T14:48:27.079Z,7.30
2019-02-19T14:51:17.922Z,7.90
2019-02-19T14:54:11.640Z,6.90
2019-02-19T14:56:59.596Z,6.70
2019-02-19T14:59:53.608Z,6.13
2019-02-19T15:02:40.470Z,6.37
2019-02-19T15:05:28.550Z,7.37
2019-02-19T15:08:12.320Z,6.40
2019-02-19T15:10:58.894Z,6.90
2019-02-19T15:13:45.462Z,7.10
2019-02-19T15:16:30.279Z,7.47
2019-02-19T15:19:19.913Z,5.40
2019-02-19T15:22:12.493Z,7.10
2019-02-19T15:25:03.514Z,6.37
2019-02-19T15:27:45.293Z,6.10
2019-02-19T15:30:27.602Z,6.17
2019-02-19T15:33:11.714Z,5.87
2019-02-19T15:35:58.660Z,5.90
2019-02-19T15:38:46.242Z,5.87
2019-02-19T15:41:30.994Z,5.93
2019-02-19T15:44:18.158Z,7.03
2019-02-19T15:47:07.872Z,5.83
2019-02-19T15:50:14.196Z,5.50
2019-02-19T15:53:01.172Z,6.03
2019-02-19T15:55:47.771Z,5.87
2019-02-19T15:58:47.418Z,6.17
2019-02-19T16:01:29.710Z,5.17
2019-02-19T16:04:02.603Z,5.23
2019-02-19T16:06:52.079Z,5.60
2019-02-19T16:09:40.674Z,5.47
2019-02-19T16:12:28.635Z,5.57
2019-02-19T16:15:10.944Z,5.93
2019-02-19T16:17:57.243Z,5.20
2019-02-19T16:20:32.054Z,5.40
2019-02-19T16:23:22.775Z,4.97
2019-02-19T16:26:10.698Z,4.90
2019-02-19T16:28:48.215Z,4.50
2019-02-19T16:31:26.773Z,5.53
2019-02-19T16:34:14.702Z,5.30
2019-02-19T16:37:01.509Z,5.03
2019-02-19T16:39:39.164Z,5.03
2019-02-19T16:42:19.786Z,4.37
2019-02-19T16:45:10.764Z,4.23
2019-02-19T16:47:49.182Z,4.90
2019-02-19T16:50:31.162Z,4.80
2019-02-19T16:53:09.286Z,4.00
2019-02-19T16:55:55.143Z,5.67
2019-02-19T16:58:35.230Z,4.87
2019-02-19T17:01:25.388Z,4.90
2019-02-19T17:04:07.713Z,5.37
2019-02-19T17:06:46.803Z,5.23
2019-02-19T17:09:20.740Z,4.33
2019-02-19T17:12:15.403Z,3.93
2019-02-19T17:15:18.523Z,5.20
2019-02-19T17:18:04.980Z,4.23
2019-02-19T17:20:55.716Z,4.73
2019-02-19T17:23:43.735Z,4.40
2019-02-19T17:26:19.904Z,4.00
2019-02-19T17:29:07.160Z,4.53
2019-02-19T17:31:45.454Z,4.13
2019-02-19T17:34:32.431Z,5.03
2019-02-19T17:37:10.569Z,4.70
2019-02-19T17:39:44.116Z,3.67
2019-02-19T17:42:51.638Z,4.23
2019-02-19T17:45:40.274Z,4.63
2019-02-19T17:48:30.134Z,4.83
2019-02-19T17:51:16.634Z,3.90
2019-02-19T17:53:58.103Z,5.57
2019-02-19T17:56:33.322Z,6.60
2019-02-19T17:59:19.025Z,5.23
2019-02-19T18:01:58.194Z,5.00
2019-02-19T18:05:03.278Z,4.07
2019-02-19T18:07:53.803Z,3.70
2019-02-19T18:10:47.711Z,3.77
2019-02-19T18:13:38.671Z,3.43
2019-02-19T18:16:18.418Z,4.13
2019-02-19T18:18:51.851Z,3.30
2019-02-19T18:21:20.960Z,3.13
2019-02-19T18:23:50.051Z,3.33
2019-02-19T18:26:19.020Z,4.80
2019-02-19T18:28:48.031Z,3.90
2019-02-19T18:31:16.907Z,3.80
2019-02-19T18:33:46.191Z,3.87
2019-02-19T18:36:15.193Z,3.43
2019-02-19T18:38:44.114Z,3.40
2019-02-19T18:41:12.956Z,3.73
2019-02-19T18:43:43.030Z,4.10
2019-02-19T18:46:12.051Z,4.30
2019-02-19T18:48:41.142Z,3.20
2019-02-19T18:51:10.143Z,3.67
2019-02-19T18:53:41.626Z,3.33
2019-02-19T18:56:10.689Z,2.77
2019-02-19T18:58:40.086Z,2.50
2019-02-19T19:01:09.191Z,1.93
2019-02-19T19:03:50.105Z,3.70
2019-02-19T19:06:18.312Z,3.50
2019-02-19T19:08:47.094Z,2.70
2019-02-19T19:11:16.046Z,2.97
2019-02-19T19:13:45.105Z,3.07
2019-02-19T19:16:14.531Z,4.03
2019-02-19T19:18:43.533Z,3.27
2019-02-19T19:21:15.007Z,3.30
2019-02-19T19:23:45.806Z,4.57
2019-02-19T19:26:15.769Z,3.20
2019-02-19T19:28:44.796Z,3.93
2019-02-19T19:31:14.523Z,3.00
2019-02-19T19:33:43.747Z,3.73
2019-02-19T19:36:13.087Z,3.27
2019-02-19T19:38:43.143Z,3.33
2019-02-19T19:41:12.027Z,4.33
2019-02-19T19:43:41.008Z,3.53
2019-02-19T19:46:10.247Z,3.93
2019-02-19T19:48:39.141Z,3.77
2019-02-19T19:51:17.135Z,3.93
2019-02-19T19:53:42.417Z,3.80
2019-02-19T19:56:14.097Z,3.00
2019-02-19T19:58:43.067Z,3.43
2019-02-19T20:01:13.255Z,2.97
2019-02-19T20:03:42.595Z,3.10
2019-02-19T20:06:12.307Z,3.10
2019-02-19T20:08:41.295Z,3.20
2019-02-19T20:11:10.542Z,3.00
2019-02-19T20:13:40.772Z,2.63
2019-02-19T20:16:10.304Z,3.23
2019-02-19T20:18:39.489Z,3.60
2019-02-19T20:21:08.695Z,3.10
2019-02-19T20:23:38.022Z,3.10
2019-02-19T20:26:08.502Z,3.87
2019-02-19T20:28:38.553Z,4.50
2019-02-19T20:31:07.601Z,3.30
2019-02-19T20:33:38.591Z,2.93
2019-02-19T20:36:07.779Z,3.67
2019-02-19T20:38:37.273Z,3.40
2019-02-19T20:41:06.731Z,3.40
2019-02-19T20:43:36.007Z,3.07
2019-02-19T20:46:05.345Z,4.40
2019-02-19T20:48:34.733Z,3.50
2019-02-19T20:51:03.793Z,3.40
2019-02-19T20:53:33.373Z,3.23
2019-02-19T20:56:03.429Z,4.87
2019-02-19T20:58:34.033Z,4.27
2019-02-19T21:01:03.631Z,3.97
2019-02-19T21:03:34.508Z,3.30
2019-02-19T21:06:03.435Z,3.50
2019-02-19T21:08:32.560Z,3.57
2019-02-19T21:11:04.702Z,3.77
2019-02-19T21:13:33.747Z,4.37
2019-02-19T21:16:02.587Z,3.53
2019-02-19T21:18:33.538Z,3.60
2019-02-19T21:21:02.281Z,5.17
2019-02-19T21:23:31.157Z,3.90
2019-02-19T21:26:00.271Z,5.03
2019-02-19T21:28:29.585Z,4.33
2019-02-19T21:30:58.509Z,5.37
2019-02-19T21:33:30.297Z,4.77
2019-02-19T21:36:03.928Z,3.97
2019-02-19T21:38:36.429Z,4.30
2019-02-19T21:41:05.330Z,3.87
2019-02-19T21:43:34.206Z,4.70
2019-02-19T21:46:04.063Z,4.10
2019-02-19T21:48:32.951Z,4.60
2019-02-19T21:51:04.817Z,3.47
2019-02-19T21:53:37.852Z,3.60
2019-02-19T21:56:06.919Z,4.00
2019-02-19T21:58:35.725Z,3.20
2019-02-19T22:01:04.634Z,3.83
2019-02-19T22:03:33.456Z,2.77
2019-02-19T22:06:02.282Z,4.03
2019-02-19T22:08:31.088Z,2.97
2019-02-19T22:11:01.957Z,4.17
2019-02-19T22:13:34.414Z,3.43
2019-02-19T22:16:03.472Z,3.00
2019-02-19T22:18:32.459Z,3.47
2019-02-19T22:21:11.389Z,2.90
2019-02-19T22:23:40.213Z,3.07
2019-02-19T22:26:09.137Z,3.13
2019-02-19T22:28:41.182Z,2.77
2019-02-19T22:31:10.100Z,3.10
2019-02-19T22:33:39.461Z,2.40
2019-02-19T22:36:08.270Z,3.50
2019-02-19T22:38:37.230Z,2.60
2019-02-19T22:41:06.330Z,2.63
2019-02-19T22:43:35.417Z,2.60
2019-02-19T22:46:04.754Z,2.90
2019-02-19T22:48:35.265Z,3.00
2019-02-19T22:51:04.395Z,2.57
2019-02-19T22:54:00.784Z,3.23
2019-02-19T22:56:32.701Z,2.97
2019-02-19T22:59:02.026Z,2.43
2019-02-19T23:01:37.308Z,3.10
2019-02-19T23:04:06.201Z,3.20
2019-02-19T23:06:35.010Z,3.10
2019-02-19T23:09:05.649Z,3.17
2019-02-19T23:11:34.459Z,3.37
2019-02-19T23:14:03.555Z,3.30
2019-02-19T23:16:32.339Z,3.40
2019-02-19T23:19:01.130Z,3.33
2019-02-19T23:21:30.012Z,3.33
2019-02-19T23:23:59.046Z,3.43
2019-02-19T23:26:27.967Z,3.47
2019-02-19T23:28:56.726Z,3.27
2019-02-19T23:31:25.676Z,3.80
2019-02-19T23:33:54.750Z,3.83
2019-02-19T23:36:40.251Z,3.10
2019-02-19T23:39:09.161Z,4.27
2019-02-19T23:41:38.086Z,4.77
2019-02-19T23:44:06.840Z,3.33
2019-02-19T23:46:37.949Z,5.20
2019-02-19T23:49:06.748Z,4.57
2019-02-19T23:51:35.686Z,4.07
2019-02-19T23:54:04.584Z,4.73
2019-02-19T23:56:33.480Z,4.10
2019-02-19T23:59:03.100Z,4.87
